Time;durP1;ratioP1;P1;durP2;ratioP2;P2;SDS_P1;SDS_P2;PMS_P1;PMS_P2;Temp;Humidity;BMP_temperature;BMP_pressure;BME280_temperature;BME280_humidity;BME280_pressure;Samples;Min_cycle;Max_cycle;Signal;HPM_P1;HPM_P2
2021/07/09 00:01:05;;;;;;;1.15;0.75;;;16.10;88.50;;;14.81;88.39;96223.47;5040559;28;20103;-68
2021/07/09 00:03:32;;;;;;;3.33;0.90;;;16.00;88.70;;;14.79;88.45;96229.00;5061182;28;20484;-67
2021/07/09 00:05:58;;;;;;;1.15;0.98;;;16.00;88.60;;;14.77;88.72;96225.75;5018847;28;20348;-68
2021/07/09 00:08:23;;;;;;;1.02;0.90;;;16.00;88.70;;;14.73;89.68;96234.31;5060346;28;20037;-68
2021/07/09 00:10:49;;;;;;;2.33;1.02;;;15.90;89.00;;;14.73;88.86;96229.03;5057235;28;20123;-68
2021/07/09 00:13:15;;;;;;;3.75;1.40;;;15.90;88.90;;;14.73;89.40;96226.38;5018071;28;20059;-68
2021/07/09 00:15:41;;;;;;;3.45;1.00;;;15.90;88.80;;;14.75;89.90;96230.44;5044542;28;20033;-68
2021/07/09 00:18:06;;;;;;;3.35;1.13;;;16.00;88.80;;;14.74;89.02;96215.56;5074822;28;20091;-68
2021/07/09 00:20:32;;;;;;;2.58;0.90;;;16.00;88.90;;;14.75;89.95;96219.84;5034510;28;20098;-68
2021/07/09 00:22:58;;;;;;;1.30;0.98;;;16.00;89.00;;;14.76;90.04;96223.31;5051174;28;20037;-68
2021/07/09 00:25:24;;;;;;;1.95;0.90;;;16.00;88.70;;;14.76;90.34;96218.00;5055634;28;20028;-68
2021/07/09 00:27:50;;;;;;;2.85;1.00;;;16.00;88.90;;;14.76;88.67;96218.81;5054834;28;20060;-68
2021/07/09 00:30:15;;;;;;;1.40;0.90;;;16.00;88.70;;;14.76;89.47;96213.53;5061080;28;20169;-68
2021/07/09 00:32:41;;;;;;;1.80;0.85;;;16.00;88.40;;;14.75;89.31;96219.03;5049660;28;20033;-69
2021/07/09 00:35:08;;;;;;;0.75;0.70;;;16.00;88.50;;;14.74;89.80;96215.56;5030021;28;20028;-70
2021/07/09 00:37:33;;;;;;;2.65;0.80;;;16.00;88.50;;;14.76;89.48;96210.06;5026899;28;20525;-69
2021/07/09 00:39:59;;;;;;;1.50;0.95;;;16.00;88.70;;;14.77;89.37;96209.03;5023400;28;20088;-69
2021/07/09 00:42:25;;;;;;;3.08;1.00;;;16.10;88.50;;;14.77;90.35;96199.25;5025161;28;20076;-69
2021/07/09 00:44:51;;;;;;;3.83;1.10;;;16.10;88.40;;;14.78;89.19;96194.78;5040058;28;20102;-69
2021/07/09 00:47:16;;;;;;;3.00;1.10;;;16.10;88.40;;;14.78;89.79;96197.44;5048840;28;20029;-69
2021/07/09 00:49:42;;;;;;;1.85;0.77;;;16.10;88.20;;;14.75;89.86;96185.44;5044941;28;20048;-69
2021/07/09 00:52:08;;;;;;;1.52;0.90;;;16.00;88.30;;;14.76;90.23;96188.88;5028534;28;20036;-69
2021/07/09 00:54:34;;;;;;;1.23;0.93;;;16.00;88.30;;;14.74;88.71;96186.44;5051444;28;20025;-69
2021/07/09 00:56:59;;;;;;;2.25;0.93;;;16.00;88.30;;;14.74;89.29;96178.50;5041411;28;20496;-69
2021/07/09 00:59:25;;;;;;;1.95;1.08;;;16.00;88.20;;;14.72;88.32;96180.56;5007505;28;20030;-69
2021/07/09 01:01:52;;;;;;;1.35;0.90;;;16.00;88.20;;;14.71;89.38;96173.63;5022492;28;20109;-69
2021/07/09 01:04:18;;;;;;;1.67;0.93;;;16.00;88.30;;;14.68;89.55;96164.25;5019078;28;20079;-70
2021/07/09 01:06:44;;;;;;;1.92;1.00;;;15.90;88.30;;;14.67;89.33;96170.59;5046877;28;20043;-69
2021/07/09 01:09:09;;;;;;;1.65;1.10;;;16.00;88.40;;;14.68;89.22;96160.81;5026991;28;20061;-70
2021/07/09 01:11:35;;;;;;;2.58;0.82;;;15.90;88.40;;;14.64;89.22;96152.47;5045156;28;20044;-67
2021/07/09 01:14:01;;;;;;;1.75;0.70;;;15.80;88.40;;;14.63;89.88;96155.34;5042603;28;20115;-67
2021/07/09 01:16:27;;;;;;;1.80;0.80;;;15.90;88.50;;;14.62;88.79;96154.53;5032478;28;20083;-67
2021/07/09 01:18:52;;;;;;;1.25;1.00;;;15.80;88.40;;;14.62;89.11;96153.72;5040212;28;20081;-67
2021/07/09 01:21:18;;;;;;;2.22;1.10;;;15.80;88.50;;;14.59;90.26;96152.31;5000711;28;20126;-68
2021/07/09 01:23:44;;;;;;;2.08;1.00;;;15.80;88.60;;;14.56;89.63;96144.81;5049834;28;20392;-67
2021/07/09 01:26:10;;;;;;;1.10;0.85;;;15.80;88.60;;;14.55;89.36;96143.19;5020572;28;20064;-67
2021/07/09 01:28:37;;;;;;;2.05;0.70;;;15.80;88.60;;;14.53;89.08;96134.63;5039347;28;20116;-68
2021/07/09 01:31:03;;;;;;;0.82;0.82;;;15.80;88.60;;;14.51;89.46;96147.28;5016618;28;21944;-68
2021/07/09 01:33:29;;;;;;;1.70;0.80;;;15.70;88.80;;;14.51;89.26;96141.16;5023353;28;20891;-68
2021/07/09 01:35:55;;;;;;;2.67;0.90;;;15.70;88.50;;;14.50;90.17;96132.41;5043589;28;20171;-68
2021/07/09 01:38:20;;;;;;;1.27;0.75;;;15.70;88.60;;;14.51;90.46;96141.97;5037898;28;20075;-68
2021/07/09 01:40:46;;;;;;;1.13;0.80;;;15.80;88.70;;;14.54;89.84;96138.91;5057546;28;20048;-68
2021/07/09 01:43:12;;;;;;;3.88;0.90;;;15.90;88.30;;;14.56;89.00;96139.50;5031645;28;20495;-68
2021/07/09 01:45:38;;;;;;;1.35;0.80;;;15.90;88.60;;;14.56;89.72;96130.75;5014622;28;20505;-67
2021/07/09 01:48:05;;;;;;;1.10;0.90;;;15.80;88.50;;;14.55;89.13;96132.59;5060229;28;20376;-68
2021/07/09 01:50:31;;;;;;;1.38;0.80;;;15.80;88.40;;;14.57;89.48;96135.84;5028512;28;20033;-68
2021/07/09 01:52:57;;;;;;;1.98;1.10;;;15.90;88.40;;;14.56;89.60;96128.09;5007158;28;20040;-68
2021/07/09 01:55:23;;;;;;;1.50;0.70;;;15.80;88.30;;;14.55;88.92;96134.44;5043420;28;20048;-67
2021/07/09 01:57:48;;;;;;;5.13;0.90;;;15.80;88.30;;;14.56;90.30;96134.22;5031480;28;20021;-67
2021/07/09 02:00:19;;;;;;;1.08;0.68;;;15.80;88.30;;;14.57;89.65;96133.19;5065321;28;20032;-68
2021/07/09 02:02:45;;;;;;;4.53;1.20;;;15.80;88.20;;;14.56;88.48;96134.22;5047894;28;20170;-68
2021/07/09 02:05:14;;;;;;;1.38;0.60;;;15.80;88.10;;;14.57;88.56;96138.47;5045284;28;20029;-68
2021/07/09 02:07:46;;;;;;;0.70;0.50;;;15.80;87.70;;;14.57;89.62;96151.72;5040558;28;20037;-68
2021/07/09 02:10:13;;;;;;;1.08;0.50;;;15.90;87.90;;;14.58;88.57;96148.03;5040072;28;20032;-68
2021/07/09 02:12:39;;;;;;;3.35;0.60;;;15.80;87.70;;;14.57;89.79;96145.59;5061048;28;20033;-68
2021/07/09 02:15:11;;;;;;;1.10;0.80;;;15.90;87.60;;;14.56;88.74;96144.81;5043659;28;20393;-68
2021/07/09 02:17:37;;;;;;;2.28;1.73;;;15.80;87.70;;;14.56;88.25;96142.16;5062635;28;20029;-68
2021/07/09 02:20:08;;;;;;;0.65;0.60;;;15.80;87.60;;;14.56;89.55;96138.69;5069893;28;20525;-68
2021/07/09 02:22:34;;;;;;;0.70;0.50;;;15.80;87.50;;;14.56;89.25;96139.50;5019418;28;20509;-68
2021/07/09 02:25:05;;;;;;;0.55;0.50;;;15.80;87.60;;;14.56;88.39;96136.84;5039968;28;20055;-68
2021/07/09 02:27:33;;;;;;;0.82;0.40;;;15.80;87.20;;;14.53;88.43;96139.94;5065136;28;20028;-68
2021/07/09 02:29:59;;;;;;;1.90;0.40;;;15.70;87.30;;;14.51;89.31;96135.88;5050955;28;20038;-68
2021/07/09 02:32:25;;;;;;;4.65;1.83;;;15.70;87.50;;;14.48;87.80;96139.72;5049669;28;20057;-69
2021/07/09 02:34:50;;;;;;;0.63;0.45;;;15.70;87.30;;;14.44;87.75;96143.84;5022393;28;20450;-68
2021/07/09 02:37:16;;;;;;;1.73;0.90;;;15.60;87.10;;;14.43;88.56;96150.16;5034143;28;20591;-68
2021/07/09 02:39:42;;;;;;;0.68;0.40;;;15.60;87.50;;;14.41;88.20;96146.88;5046277;28;20037;-68
2021/07/09 02:42:08;;;;;;;0.20;0.20;;;15.60;87.60;;;14.38;88.88;96149.94;5039529;28;20114;-68
2021/07/09 02:44:34;;;;;;;0.88;0.40;;;15.60;87.60;;;14.33;87.92;96150.59;5028737;28;20036;-68
2021/07/09 02:47:00;;;;;;;0.75;0.40;;;15.50;87.60;;;14.32;88.23;96148.16;5041227;28;20037;-68
2021/07/09 02:49:25;;;;;;;0.20;0.20;;;15.50;87.80;;;14.32;88.46;96153.44;5057594;28;20065;-68
2021/07/09 02:51:51;;;;;;;1.25;0.43;;;15.50;88.00;;;14.30;88.86;96151.00;5040816;28;20040;-68
2021/07/09 02:54:17;;;;;;;0.52;0.40;;;15.50;88.20;;;14.30;88.71;96147.56;5044423;28;20532;-68
2021/07/09 02:56:43;;;;;;;1.65;0.35;;;15.60;88.00;;;14.31;88.39;96152.63;5052362;28;20028;-69
2021/07/09 02:59:09;;;;;;;1.48;0.57;;;15.60;87.70;;;14.30;88.25;96153.66;5033744;28;20124;-68
2021/07/09 03:01:40;;;;;;;2.78;0.30;;;15.60;87.70;;;14.27;88.55;96147.97;5041429;28;20043;-68
2021/07/09 03:04:08;;;;;;;0.50;0.20;;;15.50;86.70;;;14.22;88.82;96153.88;5037527;28;20032;-68
2021/07/09 03:06:34;;;;;;;1.48;0.25;;;15.40;86.30;;;14.18;87.32;96157.16;5067102;28;20048;-68
2021/07/09 03:09:01;;;;;;;0.93;0.60;;;15.30;86.80;;;14.14;87.51;96156.78;5055643;28;20103;-68
2021/07/09 03:11:27;;;;;;;1.77;1.35;;;15.30;87.10;;;14.09;88.43;96154.75;5012106;28;20056;-67
2021/07/09 03:13:53;;;;;;;0.93;0.70;;;15.20;87.40;;;14.08;88.02;96158.44;5038017;28;20536;-68
2021/07/09 03:16:18;;;;;;;1.38;0.20;;;15.30;87.10;;;14.07;88.48;96156.81;5042244;28;20052;-68
2021/07/09 03:18:44;;;;;;;1.05;0.20;;;15.20;87.20;;;14.06;88.06;96160.47;5049124;28;20142;-68
2021/07/09 03:21:10;;;;;;;0.50;0.20;;;15.30;87.30;;;14.00;87.70;96155.19;5054161;28;20151;-68
2021/07/09 03:23:36;;;;;;;2.20;0.60;;;15.10;87.50;;;13.98;88.38;96160.69;5047446;28;20121;-68
2021/07/09 03:26:01;;;;;;;0.70;0.40;;;15.10;87.60;;;13.94;88.57;96159.47;5030830;28;20037;-68
2021/07/09 03:28:27;;;;;;;0.30;0.20;;;15.10;87.80;;;13.91;88.56;96159.91;5052305;28;20080;-68
2021/07/09 03:30:53;;;;;;;0.30;0.10;;;15.10;88.00;;;13.92;87.62;96158.88;5038978;28;20033;-68
2021/07/09 03:33:19;;;;;;;0.60;0.20;;;15.20;88.00;;;13.92;88.24;96153.59;5026001;28;20051;-68
2021/07/09 03:35:45;;;;;;;2.58;0.82;;;15.20;87.70;;;13.88;88.08;96149.75;5060604;28;20044;-68
2021/07/09 03:38:11;;;;;;;0.20;0.15;;;15.00;87.50;;;13.86;88.87;96154.44;5041334;28;20059;-68
2021/07/09 03:40:37;;;;;;;2.85;0.20;;;15.10;87.70;;;13.83;88.79;96149.56;5053421;28;20033;-68
2021/07/09 03:43:03;;;;;;;0.30;0.28;;;15.10;87.70;;;13.83;88.13;96154.03;5068476;28;20035;-68
2021/07/09 03:45:28;;;;;;;0.28;0.10;;;15.10;87.80;;;13.82;88.51;96158.50;5069754;28;20032;-68
2021/07/09 03:47:56;;;;;;;0.30;0.10;;;15.00;87.90;;;13.80;88.13;96155.25;5038873;28;20492;-68
2021/07/09 03:50:22;;;;;;;1.75;0.38;;;15.00;87.90;;;13.82;88.79;96157.72;5038646;28;20036;-68
2021/07/09 03:52:48;;;;;;;0.10;0.10;;;15.10;87.90;;;13.78;88.18;96163.38;5020503;28;20033;-68
2021/07/09 03:55:14;;;;;;;0.90;0.20;;;15.00;88.00;;;13.76;88.12;96165.41;5062379;28;20068;-68
2021/07/09 03:57:40;;;;;;;0.28;0.10;;;15.00;88.20;;;13.74;88.61;96167.47;5043892;28;20412;-68
2021/07/09 04:00:08;;;;;;;3.42;0.43;;;15.00;88.30;;;13.76;89.83;96164.59;5032193;28;20060;-69
2021/07/09 04:02:33;;;;;;;3.38;0.98;;;15.00;88.40;;;13.76;89.30;96169.91;5062778;28;20086;-68
2021/07/09 04:04:59;;;;;;;1.08;0.20;;;15.10;88.50;;;13.73;88.87;96170.31;5047617;28;20095;-70
2021/07/09 04:07:25;;;;;;;0.50;0.20;;;15.00;88.70;;;13.73;89.17;96165.03;5049429;28;20059;-69
2021/07/09 04:09:50;;;;;;;0.98;0.40;;;15.00;88.40;;;13.73;88.83;96175.59;5059112;28;20037;-68
2021/07/09 04:12:16;;;;;;;0.68;0.20;;;15.00;88.60;;;13.73;88.70;96183.53;5039292;28;20052;-71
2021/07/09 04:14:42;;;;;;;1.10;0.30;;;14.90;88.90;;;13.73;89.37;96180.88;5057590;28;20048;-70
2021/07/09 04:17:08;;;;;;;0.30;0.20;;;15.00;89.00;;;13.74;89.39;96188.63;5034407;28;20120;-71
2021/07/09 04:19:33;;;;;;;1.27;0.30;;;15.00;88.80;;;13.73;89.36;96178.25;5034332;28;20122;-70
2021/07/09 04:21:59;;;;;;;0.75;0.40;;;15.00;88.90;;;13.73;89.22;96192.28;5065016;28;20054;-68
2021/07/09 04:24:25;;;;;;;1.33;1.10;;;15.00;88.50;;;13.72;89.25;96189.84;5061993;28;20185;-69
2021/07/09 04:26:51;;;;;;;1.00;0.57;;;15.00;89.00;;;13.73;89.18;96191.47;5045204;28;20026;-69
2021/07/09 04:29:16;;;;;;;1.25;0.40;;;15.00;88.40;;;13.73;89.42;96187.00;5028594;28;20029;-68
2021/07/09 04:31:42;;;;;;;1.10;0.52;;;15.10;88.80;;;13.75;89.42;96200.00;5050608;28;20037;-68
2021/07/09 04:34:08;;;;;;;0.63;0.55;;;15.00;88.60;;;13.76;89.64;96202.44;5034389;28;20116;-68
2021/07/09 04:36:34;;;;;;;1.50;0.60;;;15.00;88.70;;;13.77;89.79;96203.25;5034580;28;20060;-68
2021/07/09 04:38:59;;;;;;;1.35;0.60;;;15.10;88.80;;;13.78;89.27;96200.38;5040739;28;20120;-69
2021/07/09 04:41:25;;;;;;;0.95;0.65;;;15.10;88.80;;;13.80;89.60;96200.19;5048395;28;20037;-69
2021/07/09 04:43:51;;;;;;;1.80;0.75;;;15.10;88.60;;;13.80;89.12;96202.81;5050241;28;20121;-68
2021/07/09 04:46:16;;;;;;;0.75;0.60;;;15.10;88.60;;;13.82;89.41;96200.81;5066955;28;20099;-68
2021/07/09 04:48:43;;;;;;;0.95;0.65;;;15.20;88.40;;;13.87;89.29;96206.28;5052679;28;20568;-68
2021/07/09 04:51:08;;;;;;;0.90;0.80;;;15.20;88.30;;;13.92;89.65;96206.47;5045692;28;20385;-68
2021/07/09 04:53:34;;;;;;;1.45;0.73;;;15.30;88.20;;;13.94;89.37;96199.16;5066883;28;20056;-67
2021/07/09 04:56:00;;;;;;;0.95;0.70;;;15.30;87.90;;;13.99;90.00;96206.47;5035241;28;20032;-68
2021/07/09 04:58:26;;;;;;;0.82;0.75;;;15.40;87.70;;;14.04;88.81;96198.72;5034389;28;20037;-68
2021/07/09 05:00:52;;;;;;;1.35;0.82;;;15.50;87.80;;;14.08;90.13;96199.94;5049210;28;20465;-68
2021/07/09 05:03:17;;;;;;;0.90;0.70;;;15.50;87.50;;;14.10;89.82;96213.75;5062677;28;20546;-68
2021/07/09 05:05:43;;;;;;;0.93;0.70;;;15.50;87.30;;;14.13;88.62;96208.06;5035854;28;20033;-68
2021/07/09 05:08:09;;;;;;;1.23;0.88;;;15.50;87.10;;;14.15;89.57;96205.19;5057749;28;20068;-68
2021/07/09 05:10:35;;;;;;;2.97;0.90;;;15.50;87.10;;;14.20;88.93;96205.38;5044146;28;20060;-69
2021/07/09 05:13:05;;;;;;;1.02;0.88;;;15.60;87.00;;;14.22;88.85;96211.28;5049639;28;20032;-70
2021/07/09 05:15:31;;;;;;;0.90;0.80;;;15.60;86.80;;;14.28;88.69;96199.88;5017968;28;20040;-69
2021/07/09 05:17:56;;;;;;;1.00;0.80;;;15.60;86.40;;;14.29;89.32;96217.38;5007446;28;20075;-67
2021/07/09 05:20:23;;;;;;;1.83;1.15;;;15.70;86.60;;;14.31;88.99;96220.63;5044569;28;20044;-67
2021/07/09 05:22:49;;;;;;;1.13;0.80;;;15.60;86.50;;;14.35;87.87;96220.00;5070795;28;20033;-67
2021/07/09 05:25:14;;;;;;;1.20;1.05;;;15.80;86.50;;;14.40;88.64;96224.66;5070474;28;20056;-68
2021/07/09 05:27:40;;;;;;;2.47;1.00;;;15.80;86.00;;;14.44;87.41;96217.94;5016256;28;20037;-70
2021/07/09 05:30:07;;;;;;;2.17;1.02;;;15.80;85.70;;;14.47;87.21;96222.81;5047145;28;20059;-69
2021/07/09 05:32:33;;;;;;;1.25;1.00;;;15.90;85.90;;;14.53;87.73;96223.81;5044643;28;20416;-68
2021/07/09 05:34:58;;;;;;;2.13;1.00;;;16.10;85.90;;;14.59;88.37;96221.13;5061191;28;20462;-68
2021/07/09 05:37:24;;;;;;;3.53;1.10;;;16.10;85.30;;;14.67;87.90;96220.88;5027818;28;20108;-68
2021/07/09 05:39:50;;;;;;;2.17;0.80;;;16.20;85.00;;;14.73;87.49;96218.44;5040256;28;20488;-68
2021/07/09 05:42:16;;;;;;;1.42;0.80;;;16.20;84.60;;;14.78;87.02;96222.06;5033330;28;20031;-66
2021/07/09 05:44:43;;;;;;;1.10;0.80;;;16.30;84.50;;;14.82;87.78;96222.44;5013846;28;20178;-65
2021/07/09 05:47:12;;;;;;;0.82;0.70;;;16.20;84.40;;;14.84;86.35;96231.00;5026373;28;20040;-69
2021/07/09 05:49:38;;;;;;;1.88;1.00;;;16.20;84.10;;;14.87;86.42;96222.63;5016193;28;20037;-68
2021/07/09 05:52:04;;;;;;;2.33;0.80;;;16.30;83.50;;;14.94;87.33;96220.78;5069870;28;20147;-68
2021/07/09 05:54:30;;;;;;;1.35;0.70;;;16.30;83.80;;;14.93;86.53;96225.22;5053597;28;20123;-69
2021/07/09 05:56:55;;;;;;;1.40;0.77;;;16.30;83.20;;;14.94;86.43;96231.38;5070323;28;20066;-69
2021/07/09 05:59:21;;;;;;;1.92;0.80;;;16.40;83.90;;;14.96;86.14;96238.06;5028052;28;20480;-68
2021/07/09 06:01:47;;;;;;;0.98;0.88;;;16.30;83.20;;;14.98;86.01;96230.72;5039953;28;20090;-67
2021/07/09 06:04:14;;;;;;;1.40;0.90;;;16.40;83.00;;;15.06;85.04;96237.59;5035278;28;20033;-67
2021/07/09 06:06:40;;;;;;;1.10;0.70;;;16.60;82.70;;;15.07;85.17;96241.84;5052246;28;20377;-68
2021/07/09 06:09:07;;;;;;;2.05;1.10;;;16.50;82.80;;;15.07;85.08;96247.16;5045678;28;20116;-68
2021/07/09 06:11:33;;;;;;;1.42;1.10;;;16.40;82.80;;;15.06;84.62;96242.88;5029769;28;20038;-68
2021/07/09 06:13:58;;;;;;;1.48;1.00;;;16.40;82.60;;;15.07;85.48;96252.47;5028470;28;20117;-68
2021/07/09 06:16:24;;;;;;;1.08;0.90;;;16.40;82.90;;;15.06;84.81;96250.03;5019298;28;20029;-66
2021/07/09 06:18:50;;;;;;;2.15;0.95;;;16.40;83.10;;;15.07;84.64;96249.81;5044559;28;20503;-67
2021/07/09 06:21:16;;;;;;;1.20;1.00;;;16.40;83.00;;;15.06;84.24;96253.47;5042751;28;20041;-69
2021/07/09 06:23:42;;;;;;;2.30;1.60;;;16.40;83.00;;;15.03;84.02;96256.56;5013033;28;20040;-66
2021/07/09 06:26:08;;;;;;;3.10;1.33;;;16.30;83.40;;;14.97;84.14;96258.22;5031889;28;20033;-65
2021/07/09 06:28:34;;;;;;;1.30;0.93;;;16.20;83.10;;;14.95;84.02;96270.88;5048132;28;20069;-65
2021/07/09 06:31:00;;;;;;;1.20;0.88;;;16.20;83.10;;;14.88;84.64;96263.97;5034804;28;20139;-65
2021/07/09 06:33:26;;;;;;;2.13;0.82;;;16.10;83.50;;;14.86;85.18;96271.31;5047724;28;20025;-65
2021/07/09 06:35:51;;;;;;;1.17;0.70;;;16.10;83.50;;;14.83;84.95;96263.78;5052428;28;20045;-65
2021/07/09 06:38:18;;;;;;;1.27;0.95;;;16.10;83.80;;;14.79;83.77;96281.13;5003017;28;20555;-65
2021/07/09 06:40:45;;;;;;;1.33;0.80;;;16.10;83.60;;;14.75;84.89;96280.75;5030958;28;20029;-65
2021/07/09 06:43:11;;;;;;;1.08;0.80;;;16.00;84.10;;;14.74;85.00;96288.91;5044498;28;20041;-64
2021/07/09 06:45:39;;;;;;;2.50;0.98;;;16.00;84.10;;;14.70;85.24;96284.00;5058911;28;20413;-65
2021/07/09 06:48:06;;;;;;;1.08;0.80;;;15.90;84.30;;;14.70;84.76;96293.78;5057594;28;20032;-65
2021/07/09 06:50:31;;;;;;;0.80;0.70;;;16.00;84.30;;;14.70;84.39;96291.94;5029823;28;20032;-71
2021/07/09 06:52:57;;;;;;;1.63;0.88;;;16.10;84.10;;;14.70;85.57;96294.59;5036494;28;20408;-65
2021/07/09 06:55:23;;;;;;;3.40;1.00;;;16.00;84.00;;;14.68;85.47;96301.94;5006263;28;20021;-69
2021/07/09 06:57:49;;;;;;;1.67;1.00;;;15.90;84.30;;;14.69;85.60;96302.75;5065997;28;20047;-69
2021/07/09 07:00:17;;;;;;;0.98;0.88;;;16.10;84.50;;;14.75;85.31;96309.06;5050092;28;20024;-66
2021/07/09 07:02:43;;;;;;;0.85;0.70;;;16.10;84.50;;;14.75;84.63;96312.53;5024110;28;20048;-65
2021/07/09 07:05:10;;;;;;;1.08;0.85;;;16.10;84.30;;;14.80;85.71;96317.19;5047635;28;20051;-65
2021/07/09 07:07:36;;;;;;;1.13;0.70;;;16.30;84.10;;;14.83;86.13;96316.75;5046773;28;20575;-65
2021/07/09 07:10:03;;;;;;;0.82;0.70;;;16.30;84.20;;;14.84;85.14;96315.75;5033451;28;20413;-65
2021/07/09 07:12:29;;;;;;;1.10;0.80;;;16.30;83.90;;;14.86;85.59;96322.44;5028197;28;20595;-65
2021/07/09 07:14:55;;;;;;;2.08;1.40;;;16.30;84.30;;;14.88;85.39;96316.94;5047632;28;20098;-65
2021/07/09 07:17:21;;;;;;;1.65;1.00;;;16.30;84.50;;;14.87;85.38;96315.31;5043860;28;20062;-71
2021/07/09 07:19:46;;;;;;;1.95;1.10;;;16.20;84.30;;;14.85;84.85;96322.66;5028719;28;20056;-68
2021/07/09 07:22:12;;;;;;;1.70;1.00;;;16.10;84.80;;;14.82;85.86;96333.69;5049032;28;20138;-68
2021/07/09 07:24:41;;;;;;;2.35;1.08;;;16.10;84.80;;;14.79;86.34;96326.16;5030344;28;20028;-69
2021/07/09 07:27:07;;;;;;;1.20;1.10;;;16.10;85.20;;;14.78;85.64;96330.63;5060504;28;20043;-68
2021/07/09 07:29:32;;;;;;;1.63;0.80;;;16.10;85.00;;;14.80;85.27;96330.44;5039628;28;20479;-67
2021/07/09 07:31:58;;;;;;;1.38;1.10;;;16.10;84.60;;;14.77;85.90;96325.56;5050109;28;20029;-76
2021/07/09 07:34:24;;;;;;;1.73;1.20;;;16.10;84.90;;;14.74;86.33;96326.78;5041465;28;20446;-68
2021/07/09 07:36:50;;;;;;;2.05;1.33;;;16.10;85.60;;;14.76;85.92;96331.88;5072717;28;20071;-74
2021/07/09 07:39:15;;;;;;;1.60;1.20;;;16.20;85.60;;;14.80;86.93;96341.03;5069738;28;20340;-68
2021/07/09 07:41:41;;;;;;;2.58;1.13;;;16.10;85.30;;;14.82;85.61;96333.69;5071602;28;20043;-67
2021/07/09 07:44:07;;;;;;;3.05;1.15;;;16.10;85.40;;;14.85;85.54;96338.56;5074798;28;20041;-68
2021/07/09 07:46:33;;;;;;;1.20;1.10;;;16.30;85.30;;;14.87;86.02;96332.03;5073969;28;20036;-71
2021/07/09 07:48:59;;;;;;;1.60;1.20;;;16.30;85.10;;;14.87;86.02;96337.31;5071481;28;20032;-67
2021/07/09 07:51:24;;;;;;;2.92;1.40;;;16.30;84.60;;;14.91;86.35;96333.22;5047151;28;20041;-72
2021/07/09 07:53:52;;;;;;;1.63;1.10;;;16.40;84.60;;;14.92;86.74;96328.72;5023604;28;20029;-68
2021/07/09 07:56:18;;;;;;;1.67;1.30;;;16.30;84.50;;;14.92;85.52;96336.69;5045360;28;20032;-68
2021/07/09 07:58:43;;;;;;;1.58;1.20;;;16.30;84.70;;;14.95;85.88;96328.34;5055664;28;20043;-67
2021/07/09 08:01:09;;;;;;;1.20;1.10;;;16.40;84.00;;;14.99;85.77;96340.13;5019751;28;20037;-67
2021/07/09 08:03:35;;;;;;;2.08;1.50;;;16.40;83.70;;;15.04;85.23;96332.38;5071076;28;20086;-67
2021/07/09 08:06:01;;;;;;;1.65;1.17;;;16.50;83.90;;;15.06;85.50;96330.31;5017928;28;20032;-67
2021/07/09 08:08:27;;;;;;;1.58;1.35;;;16.60;84.20;;;15.08;85.31;96338.84;5056530;28;20120;-69
2021/07/09 08:10:52;;;;;;;0.98;0.95;;;16.50;83.90;;;15.12;86.18;96340.06;5019565;28;20029;-64
2021/07/09 08:13:18;;;;;;;2.05;1.10;;;16.60;83.60;;;15.12;85.98;96334.75;5063900;28;20474;-66
2021/07/09 08:15:44;;;;;;;1.40;1.13;;;16.50;83.40;;;15.12;85.84;96342.72;5049078;28;20048;-68
2021/07/09 08:18:10;;;;;;;1.40;1.30;;;16.50;84.00;;;15.13;84.81;96340.88;5047560;28;20029;-67
2021/07/09 08:20:37;;;;;;;5.40;2.63;;;16.50;84.00;;;15.13;85.74;96346.97;5036737;28;20404;-67
2021/07/09 08:23:03;;;;;;;2.88;1.73;;;16.50;84.00;;;15.17;85.45;96347.41;5037629;28;20492;-66
2021/07/09 08:25:28;;;;;;;3.35;2.33;;;16.60;84.10;;;15.18;84.94;96349.84;5047340;28;20047;-65
2021/07/09 08:27:54;;;;;;;4.75;2.30;;;16.60;84.10;;;15.22;85.41;96343.09;5034124;28;20130;-65
2021/07/09 08:30:20;;;;;;;3.15;1.67;;;16.80;84.10;;;15.30;84.79;96339.34;5050979;28;20643;-65
2021/07/09 08:32:45;;;;;;;2.85;1.73;;;16.80;82.70;;;15.35;84.73;96344.03;5057431;28;20035;-69
2021/07/09 08:35:12;;;;;;;1.98;1.58;;;16.80;83.10;;;15.40;85.51;96346.88;5037613;28;20056;-64
2021/07/09 08:37:37;;;;;;;1.20;1.10;;;17.00;82.70;;;15.48;85.79;96349.25;5020712;28;20503;-64
2021/07/09 08:40:04;;;;;;;1.38;1.20;;;17.10;82.80;;;15.61;84.85;96347.38;5032792;28;20111;-68
2021/07/09 08:42:30;;;;;;;1.13;1.00;;;17.30;82.00;;;15.73;85.22;96351.97;5017873;28;20116;-69
2021/07/09 08:44:56;;;;;;;2.08;1.00;;;17.40;82.10;;;15.83;84.08;96352.28;5054868;28;20222;-70
2021/07/09 08:47:26;;;;;;;1.73;1.27;;;17.40;81.30;;;15.90;83.67;96356.53;5052742;28;20124;-68
2021/07/09 08:49:52;;;;;;;1.42;1.30;;;17.40;81.00;;;15.97;84.38;96351.19;5040266;28;20393;-66
2021/07/09 08:52:18;;;;;;;1.00;0.90;;;17.60;81.90;;;16.01;83.68;96357.66;5033818;28;20057;-67
2021/07/09 08:54:44;;;;;;;1.08;0.93;;;17.50;81.40;;;16.09;83.67;96356.63;5012456;28;20053;-68
2021/07/09 08:57:10;;;;;;;1.45;0.90;;;17.70;80.70;;;16.20;84.05;96361.19;5026391;28;20740;-70
2021/07/09 08:59:35;;;;;;;1.75;1.05;;;17.80;80.60;;;16.29;83.32;96365.19;5048848;28;20692;-70
2021/07/09 09:02:04;;;;;;;1.33;1.23;;;17.90;80.00;;;16.35;82.95;96367.00;5043992;28;20066;-66
2021/07/09 09:04:32;;;;;;;1.30;1.00;;;17.90;79.10;;;16.37;82.50;96377.38;5031223;28;20562;-66
2021/07/09 09:07:07;;;;;;;1.00;0.90;;;17.90;79.70;;;16.38;82.62;96371.84;5047833;28;20033;-67
2021/07/09 09:09:37;;;;;;;1.17;1.00;;;18.00;80.50;;;16.46;82.67;96382.19;5063789;28;20033;-64
2021/07/09 09:12:16;;;;;;;1.65;1.00;;;18.10;80.30;;;16.53;81.27;96387.47;5051100;28;20020;-64
2021/07/09 09:14:46;;;;;;;1.30;0.90;;;18.20;78.90;;;16.53;82.32;96382.97;5043215;28;20189;-64
2021/07/09 09:17:32;;;;;;;1.20;0.70;;;18.10;79.50;;;16.53;80.99;96387.47;5023803;28;20025;-65
2021/07/09 09:20:18;;;;;;;1.00;0.90;;;18.00;79.10;;;16.56;81.34;96388.84;5019604;28;20036;-64
2021/07/09 09:22:49;;;;;;;1.63;0.80;;;18.10;79.10;;;16.63;81.19;96394.91;5033132;28;20021;-65
2021/07/09 09:25:24;;;;;;;1.10;0.77;;;18.20;78.70;;;16.70;80.35;96390.38;5058719;28;20037;-67
2021/07/09 09:28:11;;;;;;;0.93;0.85;;;18.40;78.00;;;16.80;80.29;96401.31;5048191;28;20123;-65
2021/07/09 09:30:39;;;;;;;1.63;1.00;;;18.40;77.80;;;16.79;81.20;96399.69;5046089;28;20098;-67
2021/07/09 09:33:10;;;;;;;1.70;0.95;;;18.30;78.00;;;16.79;79.99;96397.03;5057579;28;20060;-65
2021/07/09 09:35:51;;;;;;;1.00;0.88;;;18.10;77.50;;;16.80;78.87;96398.66;5050359;28;20040;-65
2021/07/09 09:38:17;;;;;;;1.83;0.93;;;18.20;77.70;;;16.80;80.50;96402.13;5068750;28;20094;-67
2021/07/09 09:40:45;;;;;;;1.17;0.93;;;18.20;78.20;;;16.78;80.73;96403.38;5019979;28;20123;-66
2021/07/09 09:43:23;;;;;;;0.98;0.80;;;18.20;79.20;;;16.77;79.41;96413.19;5041344;28;20072;-66
2021/07/09 09:46:02;;;;;;;2.50;1.05;;;18.10;78.10;;;16.73;78.91;96411.97;5019787;28;20412;-64
2021/07/09 09:49:00;;;;;;;1.27;0.90;;;18.10;78.00;;;16.70;78.87;96408.97;5044666;28;20029;-64
2021/07/09 09:51:34;;;;;;;0.98;0.82;;;18.00;78.10;;;16.70;79.30;96415.09;5040764;28;20519;-64
2021/07/09 09:54:20;;;;;;;1.50;1.00;;;18.20;78.20;;;16.77;78.72;96415.84;5057927;28;20056;-64
2021/07/09 09:56:47;;;;;;;1.30;0.90;;;18.40;77.00;;;16.81;80.08;96425.00;5049142;28;20029;-64
2021/07/09 09:59:22;;;;;;;1.85;1.00;;;18.40;76.80;;;16.87;79.14;96418.00;5048114;28;20681;-65
2021/07/09 10:01:50;;;;;;;1.52;1.10;;;18.50;76.90;;;16.93;79.66;96422.41;5045776;28;20037;-65
2021/07/09 10:04:16;;;;;;;1.38;1.05;;;18.60;77.50;;;16.92;79.40;96417.31;5061766;28;20519;-64
2021/07/09 10:06:43;;;;;;;1.58;1.30;;;18.40;77.10;;;16.89;79.32;96426.53;5049131;28;20117;-64
2021/07/09 10:09:09;;;;;;;1.42;1.20;;;18.30;77.70;;;16.83;78.96;96427.44;4996170;28;20131;-64
2021/07/09 10:11:35;;;;;;;1.55;1.30;;;18.10;77.80;;;16.81;79.59;96424.19;5044147;28;20056;-67
2021/07/09 10:14:01;;;;;;;2.05;1.40;;;18.20;78.10;;;16.82;79.49;96436.44;5017588;28;20496;-63
2021/07/09 10:16:29;;;;;;;2.65;1.40;;;18.20;77.90;;;16.81;79.58;96424.19;5020621;28;20025;-64
2021/07/09 10:18:55;;;;;;;2.78;2.25;;;18.30;78.40;;;16.83;79.21;96416.81;5046953;28;20496;-63